Time;durP1;ratioP1;P1;durP2;ratioP2;P2;SDS_P1;SDS_P2;PMS_P1;PMS_P2;Temp;Humidity;BMP_temperature;BMP_pressure;BME280_temperature;BME280_humidity;BME280_pressure;Samples;Min_cycle;Max_cycle;Signal;HPM_P1;HPM_P2
2023/07/09 00:00:18;;;;;;;5.93;5.07;;;;;;;29.62;39.17;101654.44;4996635;28;96826;-80
2023/07/09 00:02:46;;;;;;;5.53;4.75;;;;;;;29.63;38.93;101647.84;5013016;28;97177;-80
2023/07/09 00:05:15;;;;;;;5.32;4.47;;;;;;;29.63;39.08;101650.63;4996658;28;98990;-80
2023/07/09 00:07:43;;;;;;;7.03;5.10;;;;;;;29.63;38.94;101657.00;4995152;28;96785;-80
2023/07/09 00:10:19;;;;;;;5.60;4.57;;;;;;;29.64;39.14;101655.09;5000383;28;96771;-80
2023/07/09 00:12:46;;;;;;;5.18;4.63;;;;;;;29.63;39.21;101656.16;4996778;28;96658;-80
2023/07/09 00:15:18;;;;;;;5.75;5.15;;;;;;;29.63;38.88;101651.47;4986525;28;96925;-80
2023/07/09 00:17:44;;;;;;;5.50;4.38;;;;;;;29.65;38.88;101656.78;5002679;28;96821;-80
2023/07/09 00:20:17;;;;;;;5.28;4.68;;;;;;;29.64;39.27;101649.56;4982793;28;96793;-80
2023/07/09 00:22:52;;;;;;;5.60;4.50;;;;;;;29.65;39.16;101648.47;5001062;28;97029;-80
2023/07/09 00:25:20;;;;;;;5.80;4.63;;;;;;;29.64;39.25;101650.41;4999724;28;97736;-80
2023/07/09 00:27:48;;;;;;;5.53;4.55;;;;;;;29.64;39.34;101655.94;4999748;28;96813;-80
2023/07/09 00:30:21;;;;;;;4.68;4.07;;;;;;;29.64;39.15;101652.31;4982361;28;96772;-80
2023/07/09 00:32:52;;;;;;;7.47;5.07;;;;;;;29.65;39.04;101654.88;4982335;28;96704;-80
2023/07/09 00:35:20;;;;;;;4.72;4.20;;;;;;;29.65;38.90;101654.88;4991910;28;98152;-80
2023/07/09 00:37:47;;;;;;;5.60;4.40;;;;;;;29.64;39.38;101647.63;4998755;28;97182;-80
2023/07/09 00:40:18;;;;;;;7.05;5.07;;;;;;;29.65;39.43;101648.47;5000556;28;97321;-80
2023/07/09 00:42:47;;;;;;;5.18;4.65;;;;;;;29.64;39.54;101650.41;4997594;28;96895;-80
2023/07/09 00:45:25;;;;;;;4.75;4.25;;;;;;;29.66;39.22;101651.03;4980151;28;98916;-80
2023/07/09 00:48:06;;;;;;;5.65;4.32;;;;;;;29.66;39.28;101650.19;4997405;28;98184;-80
2023/07/09 00:50:41;;;;;;;4.97;4.22;;;;;;;29.64;39.17;101647.63;4993816;28;96848;-80
2023/07/09 00:53:18;;;;;;;5.45;4.45;;;;;;;29.64;39.40;101646.78;4999151;28;96721;-80
2023/07/09 00:55:52;;;;;;;4.68;4.07;;;;;;;29.64;39.42;101642.09;4981984;28;97906;-80
2023/07/09 00:58:21;;;;;;;4.32;3.92;;;;;;;29.63;39.28;101650.63;4983342;28;96703;-80
2023/07/09 01:00:54;;;;;;;5.53;4.22;;;;;;;29.65;39.45;101649.34;4989207;28;97134;-80
2023/07/09 01:03:51;;;;;;;5.23;4.30;;;;;;;29.66;39.22;101645.50;4985783;28;97334;-80
2023/07/09 01:06:23;;;;;;;5.07;4.07;;;;;;;29.64;39.34;101641.25;4993769;28;97042;-80
2023/07/09 01:08:53;;;;;;;4.70;3.92;;;;;;;29.64;39.49;101641.25;4999650;28;98696;-80
2023/07/09 01:11:22;;;;;;;4.85;4.35;;;;;;;29.63;39.72;101640.41;4976824;28;97584;-80
2023/07/09 01:13:52;;;;;;;4.43;3.78;;;;;;;29.65;39.34;101642.94;4980389;28;96677;-80
2023/07/09 01:16:23;;;;;;;4.43;3.90;;;;;;;29.64;39.29;101647.63;4994119;28;96953;-80
2023/07/09 01:18:51;;;;;;;4.75;4.07;;;;;;;29.66;39.31;101644.66;5000721;28;100893;-80
2023/07/09 01:21:18;;;;;;;5.05;4.55;;;;;;;29.65;39.21;101640.19;5000112;28;96744;-80
2023/07/09 01:23:47;;;;;;;5.03;3.95;;;;;;;29.66;39.29;101645.50;4989924;28;96946;-80
2023/07/09 01:26:18;;;;;;;5.32;4.70;;;;;;;29.66;39.41;101641.88;4997893;28;97641;-80
2023/07/09 01:28:47;;;;;;;4.93;3.90;;;;;;;29.65;39.53;101629.09;4998249;28;97564;-80
2023/07/09 01:31:15;;;;;;;4.82;4.20;;;;;;;29.67;39.73;101632.50;4988308;28;96709;-80
2023/07/09 01:33:44;;;;;;;5.53;4.40;;;;;;;29.66;39.45;101630.81;4998826;28;96746;-80
2023/07/09 01:36:15;;;;;;;4.78;4.18;;;;;;;29.66;39.61;101637.19;4999319;28;98976;-80
2023/07/09 01:38:43;;;;;;;4.82;4.15;;;;;;;29.66;39.36;101631.66;4999961;28;96729;-80
2023/07/09 01:41:13;;;;;;;4.18;3.78;;;;;;;29.66;39.50;101628.88;5002919;28;96792;-80
2023/07/09 01:43:42;;;;;;;4.78;4.18;;;;;;;29.67;39.36;101640.81;4980565;28;97088;-80
2023/07/09 01:46:09;;;;;;;4.88;4.30;;;;;;;29.66;39.62;101645.50;4980003;28;99626;-80
2023/07/09 01:48:40;;;;;;;4.53;3.92;;;;;;;29.66;39.50;101652.94;4998841;28;97431;-80
2023/07/09 01:51:16;;;;;;;4.72;4.10;;;;;;;29.67;39.46;101649.97;4984175;28;97325;-80
2023/07/09 01:53:47;;;;;;;4.65;3.85;;;;;;;29.65;39.66;101654.88;4984304;28;96799;-80
2023/07/09 01:56:13;;;;;;;4.43;4.00;;;;;;;29.67;39.27;101657.44;5002624;28;96791;-80
2023/07/09 01:58:41;;;;;;;4.45;3.63;;;;;;;29.66;39.21;101656.56;4982938;28;99034;-80
2023/07/09 02:01:10;;;;;;;4.63;3.83;;;;;;;29.66;39.34;101655.72;4982850;28;97236;-80
2023/07/09 02:03:37;;;;;;;4.68;3.88;;;;;;;29.67;39.43;101662.97;4998533;28;96671;-80
2023/07/09 02:06:09;;;;;;;5.57;4.07;;;;;;;29.66;39.48;101662.09;5000850;28;96655;-80
2023/07/09 02:08:37;;;;;;;4.97;4.47;;;;;;;29.66;39.60;101662.09;4985689;28;98698;-80
2023/07/09 02:11:04;;;;;;;4.75;4.28;;;;;;;29.67;39.47;101661.03;4980780;28;96676;-80
2023/07/09 02:13:31;;;;;;;4.60;4.15;;;;;;;29.67;39.61;101671.28;4998688;28;97078;-80
2023/07/09 02:15:57;;;;;;;5.22;4.35;;;;;;;29.67;39.46;101662.97;4998438;28;98839;-80
2023/07/09 02:18:24;;;;;;;4.93;4.10;;;;;;;29.67;39.60;101668.50;4998364;28;97801;-80
2023/07/09 02:20:51;;;;;;;4.13;3.72;;;;;;;29.67;39.58;101668.50;4996664;28;97707;-80
2023/07/09 02:23:18;;;;;;;4.65;4.15;;;;;;;29.66;39.39;101662.09;4997207;28;97014;-80
2023/07/09 02:25:44;;;;;;;4.93;4.45;;;;;;;29.67;39.26;101662.97;4969717;28;98745;-80
2023/07/09 02:28:11;;;;;;;4.75;3.65;;;;;;;29.66;39.62;101662.09;4999163;28;98352;-80
2023/07/09 02:30:38;;;;;;;5.25;4.75;;;;;;;29.67;39.43;101666.59;4990162;28;96900;-80
2023/07/09 02:33:05;;;;;;;4.30;3.88;;;;;;;29.67;39.14;101671.28;4994175;28;96866;-80
2023/07/09 02:35:32;;;;;;;4.85;4.35;;;;;;;29.67;39.44;101669.34;4995897;28;96678;-80
2023/07/09 02:38:00;;;;;;;5.28;4.53;;;;;;;29.67;39.52;101669.34;4997393;28;97748;-80
2023/07/09 02:40:26;;;;;;;4.82;4.20;;;;;;;29.67;39.63;101672.13;4977078;28;97117;-80
2023/07/09 02:42:53;;;;;;;4.00;3.60;;;;;;;29.68;39.49;101671.06;4978809;28;96877;-80
2023/07/09 02:45:20;;;;;;;4.38;3.95;;;;;;;29.67;39.55;101672.13;4997275;28;97029;-80
2023/07/09 02:47:47;;;;;;;4.68;3.78;;;;;;;29.67;39.59;101677.66;4996169;28;98290;-80
2023/07/09 02:50:14;;;;;;;5.65;4.60;;;;;;;29.66;39.70;101667.66;4992671;28;97120;-80
2023/07/09 02:52:42;;;;;;;4.55;3.90;;;;;;;29.68;39.60;101672.97;4981359;28;97351;-80
2023/07/09 02:55:08;;;;;;;5.25;3.92;;;;;;;29.68;39.61;101668.28;4972079;28;98957;-80
2023/07/09 02:57:35;;;;;;;5.20;3.70;;;;;;;29.68;39.46;101670.19;4971672;28;99229;-80
2023/07/09 03:00:05;;;;;;;4.57;3.80;;;;;;;29.68;39.72;101665.50;4987759;28;96688;-80
2023/07/09 03:02:34;;;;;;;4.57;3.95;;;;;;;29.68;39.52;101664.66;4987887;28;97387;-80
2023/07/09 03:05:00;;;;;;;5.35;3.95;;;;;;;29.67;39.47;101669.34;4986271;28;99107;-80
2023/07/09 03:07:27;;;;;;;6.80;3.97;;;;;;;29.68;39.48;101668.28;4987703;28;98528;-80
2023/07/09 03:09:53;;;;;;;5.15;4.47;;;;;;;29.68;39.55;101668.28;4989338;28;96594;-80
2023/07/09 03:12:20;;;;;;;4.50;3.90;;;;;;;29.68;39.83;101668.28;4988567;28;96624;-80
2023/07/09 03:14:50;;;;;;;6.25;4.03;;;;;;;29.69;39.57;101666.38;4987597;28;100033;-80
2023/07/09 03:17:17;;;;;;;4.50;4.10;;;;;;;29.67;39.83;101666.59;4988578;28;99016;-80
2023/07/09 03:19:46;;;;;;;4.88;4.13;;;;;;;29.67;39.83;101674.88;4986754;28;96846;-80
2023/07/09 03:22:13;;;;;;;4.43;3.97;;;;;;;29.67;39.78;101665.72;4971472;28;96943;-80
2023/07/09 03:24:39;;;;;;;4.60;4.05;;;;;;;29.67;39.42;101674.03;4986059;28;96989;-80
2023/07/09 03:27:06;;;;;;;4.90;4.00;;;;;;;29.67;39.44;101668.50;4989964;28;98420;-80
2023/07/09 03:29:33;;;;;;;4.15;3.78;;;;;;;29.67;39.66;101672.13;4989942;28;96668;-80
2023/07/09 03:31:59;;;;;;;4.43;4.03;;;;;;;29.68;39.72;101675.75;4992308;28;96667;-80
2023/07/09 03:34:26;;;;;;;4.07;3.67;;;;;;;29.67;39.44;101669.34;4974385;28;100459;-80
2023/07/09 03:36:53;;;;;;;4.65;4.18;;;;;;;29.66;39.58;101673.19;4975860;28;98921;-80
2023/07/09 03:39:19;;;;;;;4.38;3.85;;;;;;;29.67;39.62;101668.50;4987905;28;96737;-80
2023/07/09 03:41:46;;;;;;;4.35;3.95;;;;;;;29.67;39.61;101669.34;5005092;28;96757;-80
2023/07/09 03:44:12;;;;;;;4.40;3.90;;;;;;;29.68;39.83;101664.66;4997492;28;100291;-80
2023/07/09 03:46:39;;;;;;;4.50;4.00;;;;;;;29.67;39.48;101674.03;4989070;28;98626;-80
2023/07/09 03:49:06;;;;;;;5.13;4.22;;;;;;;29.68;39.56;101678.50;5006781;28;96643;-80
2023/07/09 03:51:32;;;;;;;4.13;3.72;;;;;;;29.67;39.56;101672.13;5007546;28;96772;-80
2023/07/09 03:53:59;;;;;;;4.25;3.85;;;;;;;29.67;39.75;101669.34;5007258;28;96957;-80
2023/07/09 03:56:26;;;;;;;5.07;3.88;;;;;;;29.68;39.90;101670.19;5005514;28;96759;-80
2023/07/09 03:58:52;;;;;;;4.28;3.88;;;;;;;29.67;39.58;101666.59;5004999;28;96889;-80
2023/07/09 04:01:19;;;;;;;5.78;4.10;;;;;;;29.67;39.85;101662.97;5003629;28;96883;-80
2023/07/09 04:03:45;;;;;;;4.97;3.97;;;;;;;29.67;39.82;101663.81;5005863;28;96625;-80
2023/07/09 04:06:12;;;;;;;4.30;3.90;;;;;;;29.68;39.73;101670.19;5004365;28;96893;-80
2023/07/09 04:08:39;;;;;;;4.60;3.90;;;;;;;29.68;39.63;101665.50;4984023;28;96485;-80
2023/07/09 04:11:06;;;;;;;4.40;4.00;;;;;;;29.68;39.67;101664.66;4998324;28;96426;-80
2023/07/09 04:13:32;;;;;;;5.13;4.15;;;;;;;29.68;39.73;101664.66;4986240;28;100009;-80
2023/07/09 04:15:59;;;;;;;5.53;4.25;;;;;;;29.67;39.65;101683.19;5002236;28;98958;-80
2023/07/09 04:18:27;;;;;;;4.60;3.90;;;;;;;29.68;39.71;101672.97;4993788;28;96986;-80
2023/07/09 04:20:53;;;;;;;4.32;3.92;;;;;;;29.67;39.61;101674.03;4984283;28;96833;-80
2023/07/09 04:23:20;;;;;;;5.20;3.90;;;;;;;29.67;39.55;101672.13;4986554;28;96729;-80
2023/07/09 04:25:47;;;;;;;4.43;4.03;;;;;;;29.67;39.90;101671.28;4985302;28;100408;-80
2023/07/09 04:28:15;;;;;;;4.35;3.95;;;;;;;29.67;39.87;101674.03;5003289;28;96821;-80
2023/07/09 04:30:49;;;;;;;4.57;4.00;;;;;;;29.68;39.70;101665.50;5005632;28;96984;-80
2023/07/09 04:33:17;;;;;;;4.43;4.03;;;;;;;29.66;39.81;101673.19;5004737;28;96955;-80
2023/07/09 04:35:45;;;;;;;4.55;4.15;;;;;;;29.66;39.73;101670.41;4985272;28;98696;-80
2023/07/09 04:38:13;;;;;;;5.78;4.25;;;;;;;29.67;39.55;101666.59;5001730;28;96609;-80
2023/07/09 04:40:40;;;;;;;3.97;3.47;;;;;;;29.67;39.76;101674.88;5003148;28;96993;-80
2023/07/09 04:43:06;;;;;;;5.95;4.47;;;;;;;29.67;39.77;101674.88;4999637;28;98002;-80
2023/07/09 04:45:33;;;;;;;4.25;3.75;;;;;;;29.67;39.61;101672.13;5003608;28;96780;-80
2023/07/09 04:48:00;;;;;;;4.88;3.85;;;;;;;29.68;39.54;101675.75;5002697;28;97613;-80
2023/07/09 04:50:26;;;;;;;4.45;4.03;;;;;;;29.66;39.87;101670.41;5001823;28;96752;-80
2023/07/09 04:52:53;;;;;;;4.95;4.30;;;;;;;29.66;39.79;101673.19;5002362;28;97370;-80
2023/07/09 04:55:20;;;;;;;4.28;3.88;;;;;;;29.67;39.67;101682.34;4985061;28;96680;-80
2023/07/09 04:57:47;;;;;;;4.10;3.72;;;;;;;29.68;39.96;101681.28;4984719;28;96878;-80
2023/07/09 05:00:14;;;;;;;4.28;3.88;;;;;;;29.67;39.50;101685.97;5001838;28;96755;-80
2023/07/09 05:02:40;;;;;;;4.78;4.25;;;;;;;29.67;39.78;101679.56;5000603;28;98953;-80
2023/07/09 05:05:07;;;;;;;4.78;4.25;;;;;;;29.67;40.05;101679.56;5001233;28;99541;-80
2023/07/09 05:07:34;;;;;;;4.38;3.97;;;;;;;29.67;39.87;101691.50;5001261;28;96932;-80
2023/07/09 05:10:00;;;;;;;4.10;3.70;;;;;;;29.67;39.96;101680.44;5002121;28;97208;-80
2023/07/09 05:12:27;;;;;;;4.32;3.92;;;;;;;29.67;39.46;101685.09;5003070;28;96792;-80
2023/07/09 05:14:57;;;;;;;4.53;4.07;;;;;;;29.68;39.72;101686.81;5002605;28;96492;-80
2023/07/09 05:17:23;;;;;;;5.85;4.20;;;;;;;29.66;39.66;101675.94;4997108;28;96993;-80
2023/07/09 05:19:51;;;;;;;4.60;4.05;;;;;;;29.67;39.95;101682.34;4983253;28;96661;-80
2023/07/09 05:22:18;;;;;;;4.55;4.15;;;;;;;29.68;39.77;101686.81;4997535;28;98007;-80
2023/07/09 05:24:44;;;;;;;5.22;4.00;;;;;;;29.67;39.93;101685.09;5000785;28;96898;-80
2023/07/09 05:27:11;;;;;;;4.07;3.67;;;;;;;29.67;39.72;101682.34;4998575;28;96379;-80
2023/07/09 05:29:37;;;;;;;4.30;3.90;;;;;;;29.67;39.81;101676.81;4988567;28;96294;-80
2023/07/09 05:32:04;;;;;;;4.35;3.95;;;;;;;29.67;39.94;101677.66;4993615;28;97106;-80
2023/07/09 05:34:31;;;;;;;5.03;4.07;;;;;;;29.67;39.76;101674.88;4992807;28;97808;-80
2023/07/09 05:36:58;;;;;;;4.57;3.85;;;;;;;29.68;39.77;101679.34;4970957;28;96773;-80
2023/07/09 05:39:27;;;;;;;4.65;4.15;;;;;;;29.69;40.10;101682.97;4992401;28;96685;-80
2023/07/09 05:41:53;;;;;;;4.78;4.20;;;;;;;29.68;39.76;101679.34;4985914;28;99776;-80
2023/07/09 05:44:20;;;;;;;5.45;4.63;;;;;;;29.68;39.79;101681.28;5001125;28;97486;-80
2023/07/09 05:46:46;;;;;;;4.05;3.58;;;;;;;29.68;39.96;101678.50;5001349;28;96692;-79
2023/07/09 05:49:13;;;;;;;4.50;3.95;;;;;;;29.68;39.77;101676.59;5001110;28;96790;-80
2023/07/09 05:51:40;;;;;;;4.40;4.00;;;;;;;29.69;39.89;101677.44;4997251;28;98071;-80
2023/07/09 05:54:07;;;;;;;4.55;4.03;;;;;;;29.69;39.93;101677.44;4991095;28;97191;-80
2023/07/09 05:56:34;;;;;;;4.93;4.30;;;;;;;29.69;40.09;101680.22;4990952;28;96713;-79
2023/07/09 05:59:00;;;;;;;5.65;4.50;;;;;;;29.69;40.10;101675.53;4989101;28;96967;-80
2023/07/09 06:01:27;;;;;;;5.55;4.70;;;;;;;29.69;40.11;101677.44;4990141;28;96730;-80
2023/07/09 06:03:56;;;;;;;5.10;4.60;;;;;;;29.69;40.08;101678.28;4995139;28;96735;-80
2023/07/09 06:06:23;;;;;;;5.38;4.50;;;;;;;29.70;39.88;101679.13;4992722;28;96840;-80
2023/07/09 06:08:50;;;;;;;6.13;4.90;;;;;;;29.70;39.80;101679.13;4987526;28;98554;-81
2023/07/09 06:11:17;;;;;;;5.65;4.40;;;;;;;29.70;40.14;101674.47;4991504;28;97148;-82
2023/07/09 06:13:47;;;;;;;4.70;4.30;;;;;;;29.70;39.87;101677.22;4990005;28;98859;-82
2023/07/09 06:16:15;;;;;;;5.47;4.45;;;;;;;29.70;40.19;101676.38;4993249;28;96912;-82
2023/07/09 06:18:42;;;;;;;6.95;4.85;;;;;;;29.70;39.97;101681.91;4994950;28;96864;-82
2023/07/09 06:21:11;;;;;;;5.45;4.20;;;;;;;29.71;40.11;101691.91;4989186;28;96879;-82
2023/07/09 06:23:38;;;;;;;5.00;4.28;;;;;;;29.70;39.79;101693.00;4993699;28;96798;-82
2023/07/09 06:26:04;;;;;;;5.68;4.82;;;;;;;29.71;39.75;101684.47;4979600;28;97792;-82
2023/07/09 06:28:32;;;;;;;7.22;5.00;;;;;;;29.72;40.05;101688.09;4963439;28;96966;-82
2023/07/09 06:30:59;;;;;;;6.78;5.00;;;;;;;29.71;40.04;101686.38;4991800;28;99357;-82
2023/07/09 06:33:27;;;;;;;5.40;4.70;;;;;;;29.72;39.98;101688.94;4997348;28;97242;-82
2023/07/09 06:35:56;;;;;;;5.20;4.47;;;;;;;29.72;40.22;101694.47;4969166;28;96803;-82
2023/07/09 06:38:24;;;;;;;5.25;4.70;;;;;;;29.72;39.98;101697.25;4996061;28;97374;-82
2023/07/09 06:40:51;;;;;;;4.97;4.43;;;;;;;29.72;40.01;101700.00;4992334;28;96889;-83
2023/07/09 06:43:18;;;;;;;5.97;4.68;;;;;;;29.72;40.18;101694.47;4973137;28;96793;-82
2023/07/09 06:45:58;;;;;;;5.50;4.80;;;;;;;29.73;39.96;101701.75;4990604;28;97987;-82
2023/07/09 06:48:28;;;;;;;5.20;4.47;;;;;;;29.71;39.90;101691.91;5006647;28;96842;-82
2023/07/09 06:50:57;;;;;;;5.60;4.68;;;;;;;29.73;40.06;101696.22;5007359;28;99047;-82
2023/07/09 06:53:23;;;;;;;5.53;4.97;;;;;;;29.72;40.09;101697.25;5021114;28;98184;-82
2023/07/09 06:55:52;;;;;;;5.35;4.28;;;;;;;29.73;40.01;101698.97;5000820;28;96084;-82
2023/07/09 06:58:19;;;;;;;5.07;4.57;;;;;;;29.73;40.18;101701.75;4999360;28;97003;-82
2023/07/09 07:00:48;;;;;;;4.82;4.32;;;;;;;29.74;39.83;101699.81;4975496;28;97031;-83
2023/07/09 07:03:15;;;;;;;5.03;4.50;;;;;;;29.73;40.02;101696.22;4988626;28;98668;-82
2023/07/09 07:05:48;;;;;;;5.22;4.60;;;;;;;29.74;39.90;101702.59;4992574;28;96694;-82
2023/07/09 07:08:18;;;;;;;5.05;4.60;;;;;;;29.75;40.00;101697.91;4992331;28;96038;-82
2023/07/09 07:10:46;;;;;;;5.25;4.72;;;;;;;29.75;39.80;101697.91;4974231;28;97877;-83
2023/07/09 07:13:14;;;;;;;4.53;4.07;;;;;;;29.75;40.00;101693.22;4978351;28;96950;-82
2023/07/09 07:15:41;;;;;;;5.80;4.72;;;;;;;29.75;40.10;101689.59;4978407;28;96778;-82
2023/07/09 07:18:08;;;;;;;5.60;4.68;;;;;;;29.75;39.67;101693.22;4998508;28;96717;-82
2023/07/09 07:20:35;;;;;;;5.38;4.75;;;;;;;29.75;39.90;101696.00;4996125;28;97026;-82
2023/07/09 07:23:02;;;;;;;5.07;4.57;;;;;;;29.76;40.00;101683.84;4975322;28;97803;-82
2023/07/09 07:25:30;;;;;;;5.93;4.60;;;;;;;29.76;39.57;101683.84;4990944;28;97509;-82
2023/07/09 07:27:57;;;;;;;5.00;4.50;;;;;;;29.76;39.95;101678.31;4996576;28;96493;-83
2023/07/09 07:30:24;;;;;;;5.38;4.75;;;;;;;29.77;39.81;101679.16;4976059;28;98620;-83
2023/07/09 07:32:52;;;;;;;5.53;4.80;;;;;;;29.77;39.75;101674.47;4986437;28;97262;-82
2023/07/09 07:35:19;;;;;;;5.47;4.68;;;;;;;29.77;39.78;101680.00;5003143;28;96771;-82
2023/07/09 07:37:46;;;;;;;5.63;4.80;;;;;;;29.78;39.97;101673.41;4997369;28;96772;-82
2023/07/09 07:40:13;;;;;;;5.53;4.65;;;;;;;29.78;39.93;101681.72;4991015;28;97730;-82
2023/07/09 07:42:39;;;;;;;5.72;4.45;;;;;;;29.78;40.00;101676.19;5001043;28;96697;-82
2023/07/09 07:45:07;;;;;;;5.68;4.82;;;;;;;29.79;40.11;101682.56;5001622;28;96497;-82
2023/07/09 07:47:34;;;;;;;5.00;4.50;;;;;;;29.79;39.73;101675.13;4985209;28;97016;-82
2023/07/09 07:50:04;;;;;;;5.28;4.78;;;;;;;29.79;39.93;101677.88;4981986;28;99664;-82
2023/07/09 07:52:32;;;;;;;5.20;4.63;;;;;;;29.80;39.96;101671.28;4981027;28;98667;-82
2023/07/09 07:55:00;;;;;;;5.68;4.90;;;;;;;29.80;39.89;101675.97;4980914;28;96746;-82
2023/07/09 07:57:27;;;;;;;6.20;5.20;;;;;;;29.80;39.98;101675.97;4985778;28;98312;-82
2023/07/09 07:59:54;;;;;;;6.68;4.50;;;;;;;29.80;40.01;101670.44;5002698;28;96880;-82
2023/07/09 08:02:20;;;;;;;5.97;4.68;;;;;;;29.81;39.92;101674.91;4996566;28;97696;-82
2023/07/09 08:04:47;;;;;;;5.18;4.68;;;;;;;29.82;40.03;101671.06;4990003;28;96667;-82
2023/07/09 08:07:14;;;;;;;5.57;5.07;;;;;;;29.82;40.21;101671.91;5001520;28;97257;-82
2023/07/09 08:09:40;;;;;;;5.38;4.82;;;;;;;29.82;40.11;101676.59;4995403;28;98583;-82
2023/07/09 08:12:11;;;;;;;5.85;4.80;;;;;;;29.83;39.93;101687.47;4982634;28;98067;-82
2023/07/09 08:14:44;;;;;;;5.82;5.28;;;;;;;29.82;40.01;101683.00;4990651;28;96817;-82
2023/07/09 08:17:11;;;;;;;5.40;4.88;;;;;;;29.83;40.05;101686.59;4991245;28;96599;-82
2023/07/09 08:19:46;;;;;;;6.22;4.80;;;;;;;29.84;40.02;101683.63;4986825;28;99005;-82
2023/07/09 08:22:13;;;;;;;6.22;4.85;;;;;;;29.83;39.86;101675.53;4992306;28;96823;-82
2023/07/09 08:24:39;;;;;;;5.78;4.60;;;;;;;29.84;40.17;101675.31;4994275;28;96921;-82
2023/07/09 08:27:07;;;;;;;5.60;4.85;;;;;;;29.84;40.13;101675.31;4976493;28;96969;-82
2023/07/09 08:29:34;;;;;;;5.63;4.78;;;;;;;29.85;40.24;101670.63;5001665;28;96636;-82
2023/07/09 08:32:02;;;;;;;5.68;4.95;;;;;;;29.86;40.21;101666.78;4976646;28;99139;-82
2023/07/09 08:34:29;;;;;;;5.18;4.68;;;;;;;29.85;40.00;101674.25;4993003;28;96765;-82
2023/07/09 08:36:55;;;;;;;5.47;4.70;;;;;;;29.86;40.20;101664.03;4971330;28;96888;-82
2023/07/09 08:39:22;;;;;;;6.28;4.90;;;;;;;29.86;40.26;101664.88;4993034;28;96943;-82
2023/07/09 08:41:59;;;;;;;5.13;4.63;;;;;;;29.88;39.97;101664.66;4992813;28;96652;-82
2023/07/09 08:44:40;;;;;;;5.55;4.78;;;;;;;29.86;40.12;101659.34;4998600;28;97356;-82
2023/07/09 08:47:41;;;;;;;5.63;4.70;;;;;;;29.88;40.24;101659.13;4966986;28;96999;-82
2023/07/09 08:50:15;;;;;;;5.75;4.72;;;;;;;29.86;39.85;101658.47;4997878;28;98307;-82
2023/07/09 08:52:45;;;;;;;5.22;4.38;;;;;;;29.86;40.27;101658.47;4997198;28;96749;-82
2023/07/09 08:55:23;;;;;;;5.88;4.68;;;;;;;29.86;40.33;101662.09;4997094;28;96730;-82
2023/07/09 08:58:01;;;;;;;4.93;4.43;;;;;;;29.88;40.04;101659.13;4980929;28;96831;-82
2023/07/09 09:00:31;;;;;;;5.32;4.65;;;;;;;29.87;40.44;101651.88;4990764;28;98574;-82
2023/07/09 09:03:03;;;;;;;4.53;4.13;;;;;;;29.88;40.10;101653.56;4978607;28;96958;-82
2023/07/09 09:05:33;;;;;;;5.05;4.32;;;;;;;29.89;40.18;101641.44;4978240;28;97486;-82
2023/07/09 09:08:12;;;;;;;4.63;4.20;;;;;;;29.89;40.11;101655.28;4977957;28;96695;-82
2023/07/09 09:10:44;;;;;;;5.90;4.30;;;;;;;29.89;40.36;101652.50;4993822;28;96682;-82
2023/07/09 09:13:13;;;;;;;4.85;4.35;;;;;;;29.91;40.13;101653.16;4979302;28;96722;-82
2023/07/09 09:15:45;;;;;;;4.88;4.35;;;;;;;29.90;40.37;101652.28;4981182;28;96741;-82
2023/07/09 09:18:18;;;;;;;4.80;4.30;;;;;;;29.90;40.30;101644.00;4964313;28;96783;-82
2023/07/09 09:20:51;;;;;;;5.95;4.50;;;;;;;29.90;40.37;101641.22;4985950;28;96996;-82
2023/07/09 09:23:18;;;;;;;4.70;4.05;;;;;;;29.90;40.15;101634.81;4963374;28;99057;-82
2023/07/09 09:25:52;;;;;;;5.70;4.53;;;;;;;29.93;39.77;101651.00;4969999;28;97274;-82
2023/07/09 09:28:38;;;;;;;5.05;4.45;;;;;;;29.91;40.23;101647.59;4971807;28;96839;-82
2023/07/09 09:31:07;;;;;;;5.50;4.75;;;;;;;29.91;40.39;101647.59;4978666;28;100122;-82
2023/07/09 09:33:42;;;;;;;4.85;4.32;;;;;;;29.93;40.07;101642.69;4961619;28;96796;-82
2023/07/09 09:36:24;;;;;;;5.50;4.32;;;;;;;29.92;40.31;101644.63;4977679;28;96615;-82
2023/07/09 09:38:51;;;;;;;5.40;4.50;;;;;;;29.91;40.31;101647.59;4981123;28;96914;-82
2023/07/09 09:41:30;;;;;;;4.72;4.30;;;;;;;29.94;40.10;101655.47;4986425;28;98831;-82
2023/07/09 09:43:57;;;;;;;4.70;4.15;;;;;;;29.92;40.31;101650.16;4987832;28;97159;-82
2023/07/09 09:46:26;;;;;;;4.47;4.07;;;;;;;29.93;40.19;101659.31;4977308;28;96826;-82
2023/07/09 09:48:58;;;;;;;4.63;4.22;;;;;;;29.93;40.28;101659.31;4976781;28;96740;-82
2023/07/09 09:51:26;;;;;;;4.80;4.30;;;;;;;29.94;40.29;101655.47;4976919;28;99035;-82
2023/07/09 09:54:01;;;;;;;5.63;4.57;;;;;;;29.96;40.12;101653.34;4978173;28;96803;-82
2023/07/09 09:56:36;;;;;;;5.68;4.18;;;;;;;29.95;40.16;101646.94;4977887;28;96694;-82
2023/07/09 09:59:05;;;;;;;5.15;4.50;;;;;;;29.95;40.20;101646.94;4968509;28;96733;-82
2023/07/09 10:01:35;;;;;;;5.80;4.43;;;;;;;29.95;40.09;101644.19;4995037;28;97364;-82
2023/07/09 10:04:04;;;;;;;4.60;4.10;;;;;;;29.96;40.37;101625.66;4997864;28;96667;-82
2023/07/09 10:06:38;;;;;;;4.70;4.18;;;;;;;29.97;40.23;101627.34;4996148;28;97034;-82
2023/07/09 10:09:33;;;;;;;4.50;4.10;;;;;;;29.97;40.44;101617.13;4995906;28;96786;-83
2023/07/09 10:12:36;;;;;;;4.57;4.18;;;;;;;29.96;40.23;101607.13;4967309;28;96873;-82
2023/07/09 10:15:20;;;;;;;4.50;4.10;;;;;;;29.95;40.26;101612.88;4979466;28;97027;-82
2023/07/09 10:18:24;;;;;;;4.70;4.20;;;;;;;29.96;40.23;101606.25;4994439;28;96877;-82
2023/07/09 10:21:15;;;;;;;4.50;4.10;;;;;;;29.96;40.12;101611.81;4985777;28;97326;-83
2023/07/09 10:23:47;;;;;;;5.47;3.85;;;;;;;29.96;40.43;101617.34;4982767;28;98573;-83
2023/07/09 10:26:22;;;;;;;4.25;3.75;;;;;;;29.96;40.18;101623.72;4975253;28;96924;-82
2023/07/09 10:28:54;;;;;;;4.78;3.85;;;;;;;29.97;40.22;101605.19;4958490;28;97618;-82
2023/07/09 10:31:46;;;;;;;6.93;3.88;;;;;;;29.98;40.36;101609.66;4980404;28;99134;-82
2023/07/09 10:34:39;;;;;;;4.75;3.88;;;;;;;29.97;40.16;101603.28;4956855;28;98441;-82
2023/07/09 10:37:15;;;;;;;4.93;3.85;;;;;;;29.98;40.19;101610.50;4976668;28;98648;-82
2023/07/09 10:39:51;;;;;;;4.30;3.90;;;;;;;29.99;40.37;101605.81;4981487;28;96928;-82
2023/07/09 10:42:32;;;;;;;4.45;4.05;;;;;;;29.99;40.42;101600.28;4968463;28;98848;-82
2023/07/09 10:45:08;;;;;;;5.07;3.72;;;;;;;30.00;40.49;101613.06;4970063;28;98776;-82
2023/07/09 10:47:38;;;;;;;5.03;4.20;;;;;;;29.99;40.27;101612.22;4978695;28;97311;-82
2023/07/09 10:50:14;;;;;;;4.20;3.63;;;;;;;30.01;40.18;101623.06;4973155;28;96934;-82
2023/07/09 10:52:46;;;;;;;4.13;3.55;;;;;;;30.00;40.33;101619.44;4987720;28;96664;-82
2023/07/09 10:55:18;;;;;;;4.60;3.80;;;;;;;30.01;40.21;101612.00;4989898;28;97000;-83
2023/07/09 10:58:00;;;;;;;4.30;3.90;;;;;;;30.03;40.17;101618.19;4992714;28;98835;-83
2023/07/09 11:00:45;;;;;;;5.57;4.00;;;;;;;30.03;40.32;101623.75;4994931;28;96723;-82
2023/07/09 11:03:29;;;;;;;4.18;3.70;;;;;;;30.02;40.17;101616.50;4987464;28;98530;-82
2023/07/09 11:05:56;;;;;;;4.17;3.77;;;;;;;30.01;40.23;101615.66;4971576;28;96958;-82
2023/07/09 11:08:35;;;;;;;6.57;3.70;;;;;;;30.04;40.25;101611.59;4989568;28;97230;-82
2023/07/09 11:11:10;;;;;;;4.25;3.85;;;;;;;30.04;40.29;101604.13;4994063;28;97701;-83
2023/07/09 11:13:43;;;;;;;4.40;4.00;;;;;;;30.04;40.36;101600.50;4989157;28;96789;-83
2023/07/09 11:16:30;;;;;;;3.97;3.58;;;;;;;30.05;40.39;101602.22;4988046;28;96949;-82
2023/07/09 11:19:03;;;;;;;4.78;3.55;;;;;;;30.04;40.36;101583.88;4969373;28;97240;-83
2023/07/09 11:21:30;;;;;;;3.78;3.30;;;;;;;30.05;40.41;101588.34;4990728;28;96877;-83
2023/07/09 11:23:59;;;;;;;4.35;3.65;;;;;;;30.06;40.08;101572.59;4985789;28;97368;-82
2023/07/09 11:26:29;;;;;;;3.85;3.38;;;;;;;30.06;40.39;101578.97;4987210;28;97698;-82
2023/07/09 11:29:06;;;;;;;4.38;3.75;;;;;;;30.08;40.18;101584.28;4978879;28;97490;-82
2023/07/09 11:31:44;;;;;;;4.15;3.72;;;;;;;30.07;40.06;101589.00;4983705;28;96788;-82
2023/07/09 11:34:13;;;;;;;4.97;3.53;;;;;;;30.08;40.32;101592.59;4969068;28;96694;-82
2023/07/09 11:36:55;;;;;;;3.75;3.42;;;;;;;30.08;40.15;101599.00;4990880;28;97494;-82